KTPF/TPF METAR and TAF weather

Enter ICAO airport designator
Station Type Date Time Source
KTPF METAR 2019/02/16 17:35 UTC NOAA

KTPF 161735Z AUTO 21015KT 10SM SCT021 BKN055 OVC095 25/20 A2992 RMK AO2


Station Type Date Time Source
KTPF Decoded METAR 2019/02/16 17:35 UTC NOAA

Tampa, Peter O Knight Airport, FL, United States (KTPF) 27-54-56N 082-26-57W
Feb 16, 2019 - 12:35 PM EST / 2019.02.16 1735 UTC
Wind: from the SSW (210 degrees) at 17 MPH (15 KT):0
Visibility: 10 mile(s):0
Sky conditions: overcast
Temperature: 77 F (25 C)
Dew Point: 68 F (20 C)
Relative Humidity: 73%
Pressure (altimeter): 29.92 in. Hg (1013 hPa)
ob: KTPF 161735Z AUTO 21015KT 10SM SCT021 BKN055 OVC095 25/20 A2992 RMK AO2
cycle: 17

Station Type Date Time Source
KTPF TAF UTC NOAA

Error!


Example: see airport list